createdAt,value
2022-08-27T00:02:13.940Z,96652.34
2022-08-27T00:04:42.101Z,96659.53
2022-08-27T00:07:11.370Z,96660.81
2022-08-27T00:09:39.587Z,96671.22
2022-08-27T00:12:09.142Z,96673.19
2022-08-27T00:14:38.671Z,96661.53
2022-08-27T00:17:07.945Z,96656.97
2022-08-27T00:19:36.903Z,96663.59
2022-08-27T00:22:05.960Z,96660.16
2022-08-27T00:24:33.979Z,96662.47
2022-08-27T00:27:02.077Z,96658.44
2022-08-27T00:29:31.657Z,96670.06
2022-08-27T00:32:00.407Z,96668.94
2022-08-27T00:34:28.741Z,96663.81
2022-08-27T00:36:56.741Z,96665.03
2022-08-27T00:39:25.016Z,96659.53
2022-08-27T00:41:52.990Z,96654.13
2022-08-27T00:44:20.996Z,96661.16
2022-08-27T00:46:52.737Z,96661.53
2022-08-27T00:49:24.465Z,96660.00
2022-08-27T00:51:56.651Z,96673.97
2022-08-27T00:54:26.332Z,96664.50
2022-08-27T00:56:54.432Z,96666.84
2022-08-27T00:59:24.975Z,96660.63
2022-08-27T01:02:11.752Z,96666.94
2022-08-27T01:04:41.342Z,96657.56
2022-08-27T01:07:09.950Z,96655.25
2022-08-27T01:09:38.606Z,96654.03
2022-08-27T01:12:07.215Z,96643.47
2022-08-27T01:15:00.346Z,96652.03
2022-08-27T01:17:29.747Z,96649.59
2022-08-27T01:20:00.447Z,96651.97
2022-08-27T01:22:34.434Z,96651.34
2022-08-27T01:25:08.183Z,96658.91
2022-08-27T01:27:36.532Z,96662.47
2022-08-27T01:30:05.673Z,96663.34
2022-08-27T01:32:35.481Z,96672.75
2022-08-27T01:35:07.127Z,96677.78
2022-08-27T01:37:35.959Z,96673.53
2022-08-27T01:40:07.158Z,96675.91
2022-08-27T01:42:37.543Z,96685.25
2022-08-27T01:45:08.794Z,96689.91
2022-08-27T01:47:37.804Z,96681.97
2022-08-27T01:50:09.163Z,96684.38
2022-08-27T01:52:37.181Z,96687.19
2022-08-27T01:55:09.388Z,96683.31
2022-08-27T01:57:37.514Z,96692.28
2022-08-27T02:00:07.202Z,96695.38
2022-08-27T02:02:40.066Z,96699.59
2022-08-27T02:05:08.481Z,96700.59
2022-08-27T02:07:37.388Z,96706.75
2022-08-27T02:10:09.445Z,96709.53
2022-08-27T02:12:37.553Z,96710.78
2022-08-27T02:15:06.840Z,96713.47
2022-08-27T02:17:35.195Z,96712.31
2022-08-27T02:20:03.623Z,96711.72
2022-08-27T02:22:31.954Z,96711.41
2022-08-27T02:24:59.932Z,96720.19
2022-08-27T02:27:29.411Z,96709.28
2022-08-27T02:29:57.428Z,96707.72
2022-08-27T02:32:31.672Z,96703.09
2022-08-27T02:35:00.667Z,96712.72
2022-08-27T02:37:28.688Z,96713.16
2022-08-27T02:39:57.133Z,96709.69
2022-08-27T02:42:25.214Z,96703.09
2022-08-27T02:44:54.993Z,96709.78
2022-08-27T02:47:23.007Z,96709.00
2022-08-27T02:49:51.074Z,96710.88
2022-08-27T02:52:22.772Z,96714.75
2022-08-27T02:54:53.588Z,96713.16
2022-08-27T02:57:22.523Z,96706.44
2022-08-27T02:59:50.960Z,96706.13
2022-08-27T03:02:20.912Z,96704.63
2022-08-27T03:04:49.596Z,96711.63
2022-08-27T03:07:19.593Z,96703.84
2022-08-27T03:09:47.843Z,96704.25
2022-08-27T03:12:16.028Z,96696.50
2022-08-27T03:14:44.651Z,96703.09
2022-08-27T03:17:30.535Z,96695.28
2022-08-27T03:20:01.593Z,96699.97
2022-08-27T03:22:29.638Z,96695.22
2022-08-27T03:24:57.646Z,96694.88
2022-08-27T03:27:25.655Z,96688.19
2022-08-27T03:29:54.225Z,96689.78
2022-08-27T03:32:22.283Z,96694.06
2022-08-27T03:34:50.352Z,96688.97
2022-08-27T03:37:19.760Z,96693.22
2022-08-27T03:39:47.800Z,96685.75
2022-08-27T03:42:15.804Z,96687.34
2022-08-27T03:44:43.846Z,96683.47
2022-08-27T03:47:11.918Z,96682.59
2022-08-27T03:49:40.003Z,96681.47
2022-08-27T03:52:08.823Z,96688.06
2022-08-27T03:54:38.794Z,96688.50
2022-08-27T03:57:07.590Z,96695.09
2022-08-27T03:59:36.022Z,96696.66
2022-08-27T04:02:04.164Z,96689.72
2022-08-27T04:04:32.454Z,96695.53
2022-08-27T04:07:01.071Z,96688.94
2022-08-27T04:09:29.337Z,96687.78
2022-08-27T04:11:58.815Z,96680.75
2022-08-27T04:14:27.645Z,96681.91
2022-08-27T04:16:56.913Z,96683.84
2022-08-27T04:19:28.101Z,96682.59
2022-08-27T04:22:01.226Z,96677.88
2022-08-27T04:24:30.730Z,96682.19
2022-08-27T04:27:00.916Z,96676.31
2022-08-27T04:29:29.427Z,96683.28
2022-08-27T04:31:57.683Z,96682.06
2022-08-27T04:34:25.880Z,96682.06
2022-08-27T04:36:56.716Z,96676.56
2022-08-27T04:39:25.248Z,96676.91
2022-08-27T04:41:54.988Z,96683.81
2022-08-27T04:44:25.401Z,96678.34
2022-08-27T04:46:56.631Z,96685.91
2022-08-27T04:49:25.260Z,96682.03
2022-08-27T04:51:53.412Z,96691.47
2022-08-27T04:54:22.497Z,96700.84
2022-08-27T04:57:00.671Z,96700.16
2022-08-27T04:59:30.301Z,96709.47
2022-08-27T05:01:58.451Z,96705.53
2022-08-27T05:04:26.752Z,96714.88
2022-08-27T05:06:54.973Z,96715.63
2022-08-27T05:09:24.588Z,96705.78
2022-08-27T05:11:55.480Z,96722.50
2022-08-27T05:14:25.410Z,96711.63
2022-08-27T05:16:54.800Z,96708.44
2022-08-27T05:19:22.799Z,96715.47
2022-08-27T05:21:53.161Z,96710.44
2022-08-27T05:24:21.495Z,96715.09
2022-08-27T05:26:49.851Z,96720.94
2022-08-27T05:29:18.157Z,96709.28
2022-08-27T05:31:47.936Z,96714.06
2022-08-27T05:34:24.689Z,96722.88
2022-08-27T05:36:55.571Z,96712.91
2022-08-27T05:39:23.700Z,96719.25
2022-08-27T05:41:52.943Z,96713.16
2022-08-27T05:47:09.181Z,96717.22
2022-08-27T05:49:38.931Z,96708.16
2022-08-27T05:52:10.492Z,96706.16
2022-08-27T05:54:38.961Z,96703.59
2022-08-27T05:57:07.155Z,96706.44
2022-08-27T05:59:53.104Z,96708.00
2022-08-27T06:02:21.864Z,96706.88
2022-08-27T06:04:51.353Z,96707.66
2022-08-27T06:07:19.859Z,96707.03
2022-08-27T06:09:47.868Z,96707.88
2022-08-27T06:12:15.985Z,96702.44
2022-08-27T06:14:44.101Z,96711.69
2022-08-27T06:17:12.257Z,96708.38
2022-08-27T06:19:42.409Z,96706.94
2022-08-27T06:22:12.024Z,96704.72
2022-08-27T06:24:41.577Z,96701.28
2022-08-27T06:27:11.290Z,96712.09
2022-08-27T06:29:39.878Z,96707.28
2022-08-27T06:32:09.209Z,96710.47
2022-08-27T06:34:38.122Z,96708.03
2022-08-27T06:37:06.389Z,96709.03
2022-08-27T06:39:37.558Z,96700.63
2022-08-27T06:42:06.314Z,96705.41
2022-08-27T06:44:35.255Z,96707.72
2022-08-27T06:47:04.682Z,96714.25
2022-08-27T06:49:33.768Z,96713.88
2022-08-27T06:52:02.262Z,96723.22
2022-08-27T06:54:30.820Z,96719.06
2022-08-27T06:57:01.063Z,96723.22
2022-08-27T06:59:29.239Z,96729.38
2022-08-27T07:01:57.453Z,96721.66
2022-08-27T07:04:32.376Z,96732.41
2022-08-27T07:07:04.246Z,96726.31
2022-08-27T07:09:33.057Z,96735.13
2022-08-27T07:12:02.738Z,96727.75
2022-08-27T07:14:37.163Z,96729.81
2022-08-27T07:17:10.767Z,96728.53
2022-08-27T07:19:41.093Z,96725.38
2022-08-27T07:22:09.637Z,96731.69
2022-08-27T07:24:38.482Z,96729.44
2022-08-27T07:27:08.525Z,96728.94
2022-08-27T07:29:36.626Z,96734.13
2022-08-27T07:32:05.480Z,96728.59
2022-08-27T07:34:33.531Z,96733.41
2022-08-27T07:37:02.044Z,96740.91
2022-08-27T07:39:30.156Z,96732.78
2022-08-27T07:42:16.391Z,96736.97
2022-08-27T07:44:46.088Z,96739.44
2022-08-27T07:47:14.173Z,96750.97
2022-08-27T07:49:42.241Z,96740.44
2022-08-27T07:52:10.612Z,96756.06
2022-08-27T07:54:38.685Z,96744.31
2022-08-27T07:57:06.848Z,96757.78
2022-08-27T07:59:34.972Z,96752.47
2022-08-27T08:02:05.476Z,96749.16
2022-08-27T08:04:33.526Z,96762.78
2022-08-27T08:07:01.692Z,96759.75
2022-08-27T08:09:32.189Z,96762.28
2022-08-27T08:12:00.285Z,96756.59
2022-08-27T08:14:28.401Z,96751.13
2022-08-27T08:17:00.471Z,96760.88
2022-08-27T08:19:35.057Z,96763.81
2022-08-27T08:22:05.819Z,96768.53
2022-08-27T08:24:35.239Z,96772.50
2022-08-27T08:27:07.205Z,96774.00
2022-08-27T08:29:36.859Z,96778.81
2022-08-27T08:32:05.483Z,96790.56
2022-08-27T08:34:36.781Z,96783.59
2022-08-27T08:37:05.344Z,96787.84
2022-08-27T08:39:33.433Z,96799.06
2022-08-27T08:42:03.199Z,96794.53
2022-08-27T08:44:34.162Z,96806.94
2022-08-27T08:47:09.595Z,96802.06
2022-08-27T08:49:48.137Z,96797.00
2022-08-27T08:52:31.261Z,96804.94
2022-08-27T08:55:08.631Z,96802.56
2022-08-27T08:57:41.110Z,96808.16
2022-08-27T09:00:13.341Z,96807.44
2022-08-27T09:02:42.877Z,96802.81
2022-08-27T09:05:13.011Z,96802.56
2022-08-27T09:07:47.278Z,96796.22
2022-08-27T09:10:20.824Z,96797.16
2022-08-27T09:12:48.915Z,96799.06
2022-08-27T09:15:20.348Z,96794.94
2022-08-27T09:17:48.988Z,96786.03
2022-08-27T09:20:21.381Z,96792.09
2022-08-27T09:22:59.239Z,96790.19
2022-08-27T09:25:29.749Z,96791.22
2022-08-27T09:28:00.195Z,96795.19
2022-08-27T09:30:31.095Z,96799.00
2022-08-27T09:33:56.298Z,96791.81
2022-08-27T09:36:26.513Z,96796.22
2022-08-27T09:38:58.914Z,96790.66
2022-08-27T09:41:29.316Z,96790.03
2022-08-27T09:43:58.901Z,96792.47
2022-08-27T09:46:28.248Z,96792.50
2022-08-27T09:48:56.856Z,96794.19
2022-08-27T09:51:28.461Z,96790.31
2022-08-27T09:53:58.698Z,96798.97
2022-08-27T09:56:30.004Z,96789.88
2022-08-27T09:59:03.692Z,96794.63
2022-08-27T10:01:34.354Z,96793.59
2022-08-27T10:04:09.668Z,96785.78
2022-08-27T10:06:45.989Z,96789.63
2022-08-27T10:09:17.663Z,96786.53
2022-08-27T10:11:51.121Z,96784.31
2022-08-27T10:14:26.563Z,96792.19
2022-08-27T10:17:07.916Z,96788.84
2022-08-27T10:19:43.895Z,96783.25
2022-08-27T10:22:21.210Z,96782.16
2022-08-27T10:25:01.285Z,96781.47
2022-08-27T10:27:34.833Z,96772.91
2022-08-27T10:30:06.429Z,96778.41
2022-08-27T10:32:52.362Z,96769.47
2022-08-27T10:38:02.890Z,96767.63
2022-08-27T10:40:35.227Z,96766.09
2022-08-27T10:43:19.574Z,96763.41
2022-08-27T10:45:52.718Z,96757.56
2022-08-27T10:48:25.178Z,96765.00
2022-08-27T10:50:59.365Z,96756.09
2022-08-27T10:53:33.695Z,96756.13
2022-08-27T10:56:10.160Z,96755.00
2022-08-27T10:58:55.742Z,96749.84
2022-08-27T11:01:31.693Z,96750.31
2022-08-27T11:04:03.697Z,96746.03
2022-08-27T11:06:33.706Z,96755.41
2022-08-27T11:09:08.315Z,96754.72
2022-08-27T11:12:12.780Z,96751.63
2022-08-27T11:14:32.160Z,96756.38
2022-08-27T11:17:04.801Z,96747.03
2022-08-27T11:19:47.969Z,96738.41
2022-08-27T11:22:26.232Z,96744.72
2022-08-27T11:25:01.172Z,96744.66
2022-08-27T11:27:32.071Z,96755.69
2022-08-27T11:30:05.223Z,96743.91
2022-08-27T11:32:41.685Z,96741.97
2022-08-27T11:35:16.459Z,96744.81
2022-08-27T11:38:22.282Z,96732.22
2022-08-27T11:41:00.857Z,96740.91
2022-08-27T11:43:30.473Z,96733.13
2022-08-27T11:46:00.554Z,96725.69
2022-08-27T11:48:30.609Z,96719.81
2022-08-27T11:51:01.186Z,96727.69
2022-08-27T11:53:31.484Z,96725.34
2022-08-27T11:56:11.821Z,96716.75
2022-08-27T11:58:53.087Z,96719.88
2022-08-27T12:01:27.165Z,96708.13
2022-08-27T12:04:01.999Z,96704.22
2022-08-27T12:06:42.600Z,96697.97
2022-08-27T12:09:17.622Z,96699.16
2022-08-27T12:11:56.804Z,96693.66
2022-08-27T12:14:37.553Z,96692.47
2022-08-27T12:17:09.441Z,96700.34
2022-08-27T12:19:47.118Z,96690.16
2022-08-27T12:23:01.035Z,96694.81
2022-08-27T12:25:29.491Z,96684.59
2022-08-27T12:28:03.173Z,96688.97
2022-08-27T12:30:33.296Z,96680.75
2022-08-27T12:33:10.132Z,96681.53
2022-08-27T12:35:44.183Z,96679.13
2022-08-27T12:38:17.190Z,96666.59
2022-08-27T12:40:49.545Z,96674.84
2022-08-27T12:43:22.716Z,96670.91
2022-08-27T12:45:53.273Z,96674.44
2022-08-27T12:48:24.675Z,96672.06
2022-08-27T12:50:54.100Z,96668.91
2022-08-27T12:53:38.846Z,96661.84
2022-08-27T12:56:21.226Z,96668.91
2022-08-27T12:58:53.893Z,96671.69
2022-08-27T13:01:32.274Z,96663.41
2022-08-27T13:04:01.333Z,96657.13
2022-08-27T13:06:33.088Z,96661.00
2022-08-27T13:09:02.503Z,96657.81
2022-08-27T13:11:32.229Z,96657.81
2022-08-27T13:14:09.422Z,96664.13
2022-08-27T13:16:39.954Z,96658.22
2022-08-27T13:19:09.256Z,96662.53
2022-08-27T13:21:37.484Z,96668.13
2022-08-27T13:24:07.155Z,96650.84
2022-08-27T13:26:38.946Z,96665.75
2022-08-27T13:29:09.126Z,96658.28
2022-08-27T13:31:37.207Z,96654.72
2022-08-27T13:34:06.847Z,96650.84
2022-08-27T13:36:36.924Z,96646.53
2022-08-27T13:39:06.879Z,96645.31
2022-08-27T13:41:37.044Z,96653.59
2022-08-27T13:44:10.886Z,96650.81
2022-08-27T13:46:47.256Z,96646.91
2022-08-27T13:49:19.921Z,96655.53
2022-08-27T13:51:48.874Z,96651.59
2022-08-27T13:54:17.875Z,96661.00
2022-08-27T13:57:08.511Z,96652.75
2022-08-27T13:59:43.082Z,96656.63
2022-08-27T14:02:24.325Z,96655.47
2022-08-27T14:05:06.417Z,96647.59
2022-08-27T14:07:36.965Z,96659.00
2022-08-27T14:10:08.016Z,96660.16
2022-08-27T14:12:38.398Z,96666.03
2022-08-27T14:15:20.935Z,96663.66
2022-08-27T14:17:49.507Z,96658.19
2022-08-27T14:20:42.520Z,96657.78
2022-08-27T14:23:10.733Z,96658.59
2022-08-27T14:25:38.847Z,96659.28
2022-08-27T14:28:07.181Z,96655.69
2022-08-27T14:30:37.120Z,96649.75
2022-08-27T14:33:05.209Z,96647.31
2022-08-27T14:35:34.837Z,96642.44
2022-08-27T14:38:08.116Z,96648.28
2022-08-27T14:40:36.359Z,96637.19
2022-08-27T14:43:05.154Z,96634.25
2022-08-27T14:45:37.080Z,96634.59
2022-08-27T14:48:06.810Z,96636.41
2022-08-27T14:50:43.472Z,96630.03
2022-08-27T14:53:11.661Z,96626.75
2022-08-27T14:55:39.914Z,96630.38
2022-08-27T14:58:08.536Z,96629.28
2022-08-27T15:00:38.454Z,96624.72
2022-08-27T15:03:07.708Z,96626.91
2022-08-27T15:05:35.756Z,96621.56
2022-08-27T15:08:04.616Z,96617.56
2022-08-27T15:10:33.014Z,96621.00
2022-08-27T15:13:01.106Z,96623.69
2022-08-27T15:15:29.213Z,96617.38
2022-08-27T15:17:58.701Z,96616.50
2022-08-27T15:20:26.807Z,96616.44
2022-08-27T15:22:55.124Z,96622.59
2022-08-27T15:25:23.497Z,96618.19
2022-08-27T15:27:51.545Z,96625.03
2022-08-27T15:30:27.132Z,96617.00
2022-08-27T15:32:55.731Z,96621.06
2022-08-27T15:35:27.530Z,96629.28
2022-08-27T15:37:56.694Z,96622.53
2022-08-27T15:40:25.686Z,96625.66
2022-08-27T15:42:57.074Z,96624.28
2022-08-27T15:45:27.629Z,96623.69
2022-08-27T15:47:56.203Z,96619.34
2022-08-27T15:50:25.896Z,96615.03
2022-08-27T15:52:58.275Z,96622.19
2022-08-27T15:55:29.496Z,96620.88
2022-08-27T15:57:58.567Z,96621.41
2022-08-27T16:00:28.205Z,96617.38
2022-08-27T16:02:57.124Z,96610.84
2022-08-27T16:05:27.803Z,96615.63
2022-08-27T16:07:56.025Z,96624.53
2022-08-27T16:10:24.210Z,96628.06
2022-08-27T16:12:52.354Z,96623.53
2022-08-27T16:15:20.693Z,96625.47
2022-08-27T16:17:48.890Z,96624.38
2022-08-27T16:20:17.135Z,96631.06
2022-08-27T16:22:46.676Z,96618.56
2022-08-27T16:25:18.475Z,96612.66
2022-08-27T16:27:48.756Z,96614.47
2022-08-27T16:30:17.179Z,96621.50
2022-08-27T16:32:47.870Z,96615.56
2022-08-27T16:35:16.577Z,96613.69
2022-08-27T16:37:46.170Z,96627.13
2022-08-27T16:40:15.030Z,96624.00
2022-08-27T16:42:45.515Z,96620.81
2022-08-27T16:45:14.790Z,96624.06
2022-08-27T16:47:56.873Z,96626.53
2022-08-27T16:50:37.041Z,96635.13
2022-08-27T16:53:09.566Z,96634.75
2022-08-27T16:55:39.117Z,96636.66
2022-08-27T16:58:14.641Z,96642.13
2022-08-27T17:00:42.887Z,96632.25
2022-08-27T17:03:10.987Z,96631.47
2022-08-27T17:05:39.176Z,96629.25
2022-08-27T17:08:11.463Z,96642.94
2022-08-27T17:10:43.377Z,96643.69
2022-08-27T17:13:19.329Z,96653.13
2022-08-27T17:15:53.167Z,96649.19
2022-08-27T17:18:22.279Z,96655.88
2022-08-27T17:20:50.495Z,96655.53
2022-08-27T17:23:22.833Z,96652.81
2022-08-27T17:25:51.046Z,96653.56
2022-08-27T17:28:19.713Z,96660.28
2022-08-27T17:30:47.886Z,96660.66
2022-08-27T17:33:21.055Z,96661.84
2022-08-27T17:35:49.299Z,96661.09
2022-08-27T17:38:17.407Z,96670.13
2022-08-27T17:40:47.308Z,96670.91
2022-08-27T17:43:21.258Z,96679.16
2022-08-27T17:45:50.082Z,96679.16
2022-08-27T17:48:24.792Z,96678.25
2022-08-27T17:50:55.026Z,96684.53
2022-08-27T17:53:23.121Z,96687.69
2022-08-27T17:55:52.743Z,96701.06
2022-08-27T17:58:21.446Z,96700.25
2022-08-27T18:00:50.083Z,96692.38
2022-08-27T18:03:20.641Z,96698.88
2022-08-27T18:05:49.511Z,96702.38
2022-08-27T18:08:17.793Z,96703.81
2022-08-27T18:10:48.851Z,96700.66
2022-08-27T18:13:18.498Z,96703.00
2022-08-27T18:15:46.827Z,96713.25
2022-08-27T18:18:15.765Z,96711.25
2022-08-27T18:20:43.818Z,96715.91
2022-08-27T18:23:12.505Z,96705.31
2022-08-27T18:25:41.030Z,96714.63
2022-08-27T18:28:11.324Z,96720.59
2022-08-27T18:30:43.460Z,96724.53
2022-08-27T18:33:11.766Z,96728.91
2022-08-27T18:35:40.364Z,96720.31
2022-08-27T18:38:08.793Z,96728.13
2022-08-27T18:40:39.461Z,96725.81
2022-08-27T18:43:07.790Z,96741.44
2022-08-27T18:45:37.766Z,96743.41
2022-08-27T18:48:13.121Z,96744.44
2022-08-27T18:50:45.001Z,96746.78
2022-08-27T18:53:13.965Z,96753.84
2022-08-27T18:55:42.330Z,96759.72
2022-08-27T18:58:10.541Z,96752.41
2022-08-27T19:00:39.187Z,96759.81
2022-08-27T19:03:09.404Z,96763.34
2022-08-27T19:05:37.638Z,96762.91
2022-08-27T19:08:05.703Z,96760.66
2022-08-27T19:10:34.578Z,96763.84
2022-08-27T19:13:02.628Z,96776.00
2022-08-27T19:15:30.721Z,96768.53
2022-08-27T19:18:02.950Z,96773.19
2022-08-27T19:20:32.545Z,96775.78
2022-08-27T19:23:00.594Z,96769.16
2022-08-27T19:25:29.579Z,96784.81
2022-08-27T19:27:57.870Z,96769.91
2022-08-27T19:30:26.999Z,96775.38
2022-08-27T19:32:57.649Z,96781.63
2022-08-27T19:35:26.116Z,96783.16
2022-08-27T19:37:55.828Z,96776.53
2022-08-27T19:40:24.141Z,96776.91
2022-08-27T19:42:52.305Z,96775.75
2022-08-27T19:45:23.030Z,96781.63
2022-08-27T19:47:51.857Z,96787.09
2022-08-27T19:50:20.488Z,96782.78
2022-08-27T19:52:48.542Z,96783.13
2022-08-27T19:55:18.307Z,96783.88
2022-08-27T19:57:46.684Z,96777.19
2022-08-27T20:00:17.044Z,96776.78
2022-08-27T20:02:46.483Z,96777.50
2022-08-27T20:05:19.021Z,96772.03
2022-08-27T20:07:47.493Z,96777.06
2022-08-27T20:10:16.941Z,96772.00
2022-08-27T20:12:46.352Z,96775.06
2022-08-27T20:15:15.212Z,96773.09
2022-08-27T20:17:44.046Z,96773.88
2022-08-27T20:20:13.603Z,96774.22
2022-08-27T20:22:42.075Z,96775.75
2022-08-27T20:25:10.902Z,96775.28
2022-08-27T20:27:40.844Z,96785.00
2022-08-27T20:30:11.465Z,96776.41
2022-08-27T20:32:39.478Z,96774.84
2022-08-27T20:35:09.579Z,96771.97
2022-08-27T20:37:42.022Z,96774.69
2022-08-27T20:40:15.110Z,96775.34
2022-08-27T20:42:45.419Z,96767.88
2022-08-27T20:45:14.063Z,96772.16
2022-08-27T20:47:42.640Z,96770.53
2022-08-27T20:50:12.817Z,96769.72
2022-08-27T20:52:41.225Z,96775.63
2022-08-27T20:55:12.080Z,96776.38
2022-08-27T20:58:04.530Z,96772.09
2022-08-27T21:00:37.025Z,96770.53
2022-08-27T21:03:30.335Z,96768.22
2022-08-27T21:05:58.338Z,96776.00
2022-08-27T21:08:26.450Z,96782.13
2022-08-27T21:10:57.409Z,96785.69
2022-08-27T21:13:27.749Z,96778.88
2022-08-27T21:15:57.249Z,96781.59
2022-08-27T21:18:29.980Z,96783.09
2022-08-27T21:20:58.675Z,96792.84
2022-08-27T21:23:27.850Z,96793.59
2022-08-27T21:25:56.125Z,96796.75
2022-08-27T21:28:24.148Z,96790.75
2022-08-27T21:30:52.141Z,96786.34
2022-08-27T21:33:21.703Z,96794.34
2022-08-27T21:35:49.757Z,96796.06
2022-08-27T21:38:17.798Z,96787.22
2022-08-27T21:40:45.834Z,96791.16
2022-08-27T21:43:13.887Z,96794.72
2022-08-27T21:45:45.880Z,96789.22
2022-08-27T21:48:14.114Z,96799.00
2022-08-27T21:50:43.653Z,96799.78
2022-08-27T21:53:11.726Z,96797.88
2022-08-27T21:55:39.781Z,96802.53
2022-08-27T21:58:07.842Z,96807.63
2022-08-27T22:00:41.095Z,96803.63
2022-08-27T22:03:13.338Z,96809.50
2022-08-27T22:05:45.016Z,96806.03
2022-08-27T22:08:14.056Z,96807.91
2022-08-27T22:10:44.593Z,96811.06
2022-08-27T22:13:13.006Z,96817.69
2022-08-27T22:15:41.523Z,96816.09
2022-08-27T22:18:09.993Z,96817.28
2022-08-27T22:20:38.399Z,96815.56
2022-08-27T22:23:10.325Z,96813.09
2022-08-27T22:25:38.496Z,96814.31
2022-08-27T22:28:06.990Z,96803.81
2022-08-27T22:30:35.175Z,96811.22
2022-08-27T22:33:03.282Z,96814.34
2022-08-27T22:35:31.349Z,96819.81
2022-08-27T22:37:59.388Z,96824.81
2022-08-27T22:40:30.744Z,96816.59
2022-08-27T22:42:59.157Z,96818.59
2022-08-27T22:45:28.178Z,96811.66
2022-08-27T22:47:56.381Z,96819.53
2022-08-27T22:50:24.801Z,96818.38
2022-08-27T22:52:54.243Z,96807.53
2022-08-27T22:55:23.656Z,96811.53
2022-08-27T22:57:54.350Z,96810.50
2022-08-27T23:00:24.996Z,96809.25
2022-08-27T23:02:53.262Z,96810.06
2022-08-27T23:05:21.820Z,96815.63
2022-08-27T23:07:49.886Z,96810.00
2022-08-27T23:10:19.362Z,96816.72
2022-08-27T23:12:48.194Z,96815.91
2022-08-27T23:15:19.712Z,96812.97
2022-08-27T23:17:47.842Z,96816.16
2022-08-27T23:20:17.055Z,96815.44
2022-08-27T23:22:45.541Z,96818.47
2022-08-27T23:25:31.615Z,96809.56
2022-08-27T23:27:59.993Z,96810.59
2022-08-27T23:30:30.353Z,96810.72
2022-08-27T23:32:58.425Z,96811.13
2022-08-27T23:35:29.128Z,96816.34
2022-08-27T23:37:57.962Z,96821.34
2022-08-27T23:40:26.456Z,96817.03
2022-08-27T23:42:54.936Z,96811.31
2022-08-27T23:45:25.371Z,96818.41
2022-08-27T23:47:54.776Z,96813.38
2022-08-27T23:50:31.525Z,96814.59
2022-08-27T23:53:02.453Z,96810.72
2022-08-27T23:55:30.553Z,96808.72
2022-08-27T23:57:58.594Z,96813.75
